sensor_id;sensor_type;location;lat;lon;timestamp;P1;durP1;ratioP1;P2;durP2;ratioP2
59512;SDS011;45330;51.634;5.562;2022-12-29T00:02:04;7.78;;;3.00;;
59512;SDS011;45330;51.634;5.562;2022-12-29T00:04:29;7.03;;;3.05;;
59512;SDS011;45330;51.634;5.562;2022-12-29T00:06:55;9.43;;;3.10;;
59512;SDS011;45330;51.634;5.562;2022-12-29T00:09:20;7.43;;;3.35;;
59512;SDS011;45330;51.634;5.562;2022-12-29T00:11:46;7.40;;;3.20;;
59512;SDS011;45330;51.634;5.562;2022-12-29T00:14:11;6.80;;;2.60;;
59512;SDS011;45330;51.634;5.562;2022-12-29T00:16:56;4.75;;;2.50;;
59512;SDS011;45330;51.634;5.562;2022-12-29T00:19:22;7.55;;;2.28;;
59512;SDS011;45330;51.634;5.562;2022-12-29T00:22:23;4.70;;;2.30;;
59512;SDS011;45330;51.634;5.562;2022-12-29T00:25:08;5.10;;;2.10;;
59512;SDS011;45330;51.634;5.562;2022-12-29T00:27:53;2.83;;;1.58;;
59512;SDS011;45330;51.634;5.562;2022-12-29T00:30:37;4.78;;;1.80;;
59512;SDS011;45330;51.634;5.562;2022-12-29T00:33:22;2.50;;;1.58;;
59512;SDS011;45330;51.634;5.562;2022-12-29T00:38:37;5.20;;;1.65;;
59512;SDS011;45330;51.634;5.562;2022-12-29T00:41:39;2.55;;;1.50;;
59512;SDS011;45330;51.634;5.562;2022-12-29T00:44:24;4.68;;;1.60;;
59512;SDS011;45330;51.634;5.562;2022-12-29T00:46:49;5.22;;;1.67;;
59512;SDS011;45330;51.634;5.562;2022-12-29T00:49:15;4.68;;;1.60;;
59512;SDS011;45330;51.634;5.562;2022-12-29T00:51:59;2.33;;;1.20;;
59512;SDS011;45330;51.634;5.562;2022-12-29T00:54:25;1.77;;;1.30;;
59512;SDS011;45330;51.634;5.562;2022-12-29T00:56:51;3.85;;;1.55;;
59512;SDS011;45330;51.634;5.562;2022-12-29T00:59:18;5.78;;;1.40;;
59512;SDS011;45330;51.634;5.562;2022-12-29T01:01:44;6.13;;;1.60;;
59512;SDS011;45330;51.634;5.562;2022-12-29T01:04:10;2.60;;;1.63;;
59512;SDS011;45330;51.634;5.562;2022-12-29T01:06:36;3.03;;;2.00;;
59512;SDS011;45330;51.634;5.562;2022-12-29T01:09:04;4.13;;;2.00;;
59512;SDS011;45330;51.634;5.562;2022-12-29T01:11:49;4.63;;;2.22;;
59512;SDS011;45330;51.634;5.562;2022-12-29T01:14:15;5.60;;;2.75;;
59512;SDS011;45330;51.634;5.562;2022-12-29T01:16:41;5.30;;;2.65;;
59512;SDS011;45330;51.634;5.562;2022-12-29T01:19:06;5.05;;;2.85;;
59512;SDS011;45330;51.634;5.562;2022-12-29T01:21:32;6.50;;;2.88;;
59512;SDS011;45330;51.634;5.562;2022-12-29T01:23:58;5.82;;;2.80;;
59512;SDS011;45330;51.634;5.562;2022-12-29T01:26:23;8.10;;;3.15;;
59512;SDS011;45330;51.634;5.562;2022-12-29T01:28:49;7.05;;;3.25;;
59512;SDS011;45330;51.634;5.562;2022-12-29T01:31:14;4.93;;;2.97;;
59512;SDS011;45330;51.634;5.562;2022-12-29T01:33:40;5.18;;;2.80;;
59512;SDS011;45330;51.634;5.562;2022-12-29T01:36:08;8.88;;;2.90;;
59512;SDS011;45330;51.634;5.562;2022-12-29T01:38:36;4.80;;;2.50;;
59512;SDS011;45330;51.634;5.562;2022-12-29T01:41:03;3.63;;;2.30;;
59512;SDS011;45330;51.634;5.562;2022-12-29T01:43:43;5.97;;;2.60;;
59512;SDS011;45330;51.634;5.562;2022-12-29T01:49:11;4.82;;;1.85;;
59512;SDS011;45330;51.634;5.562;2022-12-29T01:51:56;6.03;;;2.10;;
59512;SDS011;45330;51.634;5.562;2022-12-29T01:54:29;4.82;;;2.30;;
59512;SDS011;45330;51.634;5.562;2022-12-29T01:56:59;6.13;;;1.95;;
59512;SDS011;45330;51.634;5.562;2022-12-29T01:59:29;3.03;;;1.70;;
59512;SDS011;45330;51.634;5.562;2022-12-29T02:01:57;2.55;;;1.70;;
59512;SDS011;45330;51.634;5.562;2022-12-29T02:04:24;6.82;;;1.67;;
59512;SDS011;45330;51.634;5.562;2022-12-29T02:06:52;4.75;;;1.80;;
59512;SDS011;45330;51.634;5.562;2022-12-29T02:09:21;4.18;;;1.60;;
59512;SDS011;45330;51.634;5.562;2022-12-29T02:11:48;5.63;;;1.70;;
59512;SDS011;45330;51.634;5.562;2022-12-29T02:14:13;1.60;;;1.23;;
59512;SDS011;45330;51.634;5.562;2022-12-29T02:33:09;4.55;;;1.42;;
59512;SDS011;45330;51.634;5.562;2022-12-29T02:52:12;3.97;;;1.55;;
59512;SDS011;45330;51.634;5.562;2022-12-29T02:54:43;6.95;;;2.22;;
59512;SDS011;45330;51.634;5.562;2022-12-29T02:57:31;3.35;;;1.20;;
59512;SDS011;45330;51.634;5.562;2022-12-29T03:00:04;10.75;;;1.83;;
59512;SDS011;45330;51.634;5.562;2022-12-29T03:11:07;3.92;;;1.20;;
59512;SDS011;45330;51.634;5.562;2022-12-29T03:14:17;4.68;;;1.38;;
59512;SDS011;45330;51.634;5.562;2022-12-29T03:17:08;4.30;;;1.33;;
59512;SDS011;45330;51.634;5.562;2022-12-29T03:19:40;3.40;;;1.35;;
59512;SDS011;45330;51.634;5.562;2022-12-29T03:22:22;6.43;;;1.52;;
59512;SDS011;45330;51.634;5.562;2022-12-29T03:25:28;3.72;;;1.50;;
59512;SDS011;45330;51.634;5.562;2022-12-29T03:27:49;9.18;;;1.70;;
59512;SDS011;45330;51.634;5.562;2022-12-29T03:30:18;4.63;;;1.20;;
59512;SDS011;45330;51.634;5.562;2022-12-29T03:32:45;7.32;;;1.98;;
59512;SDS011;45330;51.634;5.562;2022-12-29T03:35:14;5.03;;;1.35;;
59512;SDS011;45330;51.634;5.562;2022-12-29T03:37:49;5.40;;;1.50;;
59512;SDS011;45330;51.634;5.562;2022-12-29T03:40:20;4.38;;;1.25;;
59512;SDS011;45330;51.634;5.562;2022-12-29T03:42:48;6.63;;;1.77;;
59512;SDS011;45330;51.634;5.562;2022-12-29T03:45:15;3.38;;;1.60;;
59512;SDS011;45330;51.634;5.562;2022-12-29T03:47:40;6.03;;;1.27;;
59512;SDS011;45330;51.634;5.562;2022-12-29T03:50:06;5.97;;;1.50;;
59512;SDS011;45330;51.634;5.562;2022-12-29T03:52:33;2.53;;;1.20;;
59512;SDS011;45330;51.634;5.562;2022-12-29T03:54:59;9.20;;;1.63;;
59512;SDS011;45330;51.634;5.562;2022-12-29T03:57:24;6.68;;;1.40;;
59512;SDS011;45330;51.634;5.562;2022-12-29T03:59:50;5.20;;;1.52;;
59512;SDS011;45330;51.634;5.562;2022-12-29T04:02:15;3.58;;;1.60;;
59512;SDS011;45330;51.634;5.562;2022-12-29T04:04:40;4.40;;;1.48;;
59512;SDS011;45330;51.634;5.562;2022-12-29T04:07:06;8.63;;;1.58;;
59512;SDS011;45330;51.634;5.562;2022-12-29T04:09:31;6.35;;;1.35;;
59512;SDS011;45330;51.634;5.562;2022-12-29T04:11:56;3.22;;;1.30;;
59512;SDS011;45330;51.634;5.562;2022-12-29T04:14:22;5.65;;;1.50;;
59512;SDS011;45330;51.634;5.562;2022-12-29T04:16:47;5.30;;;1.48;;
59512;SDS011;45330;51.634;5.562;2022-12-29T04:19:12;4.30;;;1.40;;
59512;SDS011;45330;51.634;5.562;2022-12-29T04:21:38;7.35;;;1.58;;
59512;SDS011;45330;51.634;5.562;2022-12-29T04:24:03;5.85;;;1.48;;
59512;SDS011;45330;51.634;5.562;2022-12-29T04:26:31;5.75;;;1.90;;
59512;SDS011;45330;51.634;5.562;2022-12-29T04:28:57;6.90;;;1.50;;
59512;SDS011;45330;51.634;5.562;2022-12-29T04:31:22;3.50;;;1.40;;
59512;SDS011;45330;51.634;5.562;2022-12-29T04:33:47;5.75;;;1.63;;
59512;SDS011;45330;51.634;5.562;2022-12-29T04:36:13;8.85;;;1.75;;
59512;SDS011;45330;51.634;5.562;2022-12-29T04:38:38;4.55;;;1.60;;
59512;SDS011;45330;51.634;5.562;2022-12-29T04:41:04;7.28;;;2.00;;
59512;SDS011;45330;51.634;5.562;2022-12-29T04:43:29;9.40;;;1.80;;
59512;SDS011;45330;51.634;5.562;2022-12-29T04:45:55;9.32;;;1.70;;
59512;SDS011;45330;51.634;5.562;2022-12-29T04:48:20;8.45;;;1.80;;
59512;SDS011;45330;51.634;5.562;2022-12-29T04:50:47;11.35;;;1.80;;
59512;SDS011;45330;51.634;5.562;2022-12-29T04:53:14;11.20;;;1.75;;
59512;SDS011;45330;51.634;5.562;2022-12-29T04:55:40;12.23;;;2.05;;
59512;SDS011;45330;51.634;5.562;2022-12-29T04:58:06;8.45;;;1.63;;
59512;SDS011;45330;51.634;5.562;2022-12-29T05:00:31;10.93;;;1.67;;
59512;SDS011;45330;51.634;5.562;2022-12-29T05:02:57;6.95;;;1.63;;
59512;SDS011;45330;51.634;5.562;2022-12-29T05:05:23;9.02;;;1.83;;
59512;SDS011;45330;51.634;5.562;2022-12-29T05:07:48;12.02;;;1.90;;
59512;SDS011;45330;51.634;5.562;2022-12-29T05:10:13;8.65;;;1.60;;
59512;SDS011;45330;51.634;5.562;2022-12-29T05:12:39;12.45;;;1.80;;
59512;SDS011;45330;51.634;5.562;2022-12-29T05:15:05;13.00;;;1.95;;
59512;SDS011;45330;51.634;5.562;2022-12-29T05:17:32;9.63;;;1.95;;
59512;SDS011;45330;51.634;5.562;2022-12-29T05:19:57;11.55;;;1.95;;
59512;SDS011;45330;51.634;5.562;2022-12-29T05:22:23;10.63;;;2.10;;
59512;SDS011;45330;51.634;5.562;2022-12-29T05:24:48;12.68;;;2.33;;
59512;SDS011;45330;51.634;5.562;2022-12-29T05:27:13;10.00;;;1.98;;
59512;SDS011;45330;51.634;5.562;2022-12-29T05:29:39;12.13;;;2.22;;
59512;SDS011;45330;51.634;5.562;2022-12-29T05:32:04;5.15;;;1.60;;
59512;SDS011;45330;51.634;5.562;2022-12-29T05:34:30;9.18;;;1.90;;
59512;SDS011;45330;51.634;5.562;2022-12-29T05:36:55;11.60;;;2.03;;
59512;SDS011;45330;51.634;5.562;2022-12-29T05:39:21;9.95;;;1.83;;
59512;SDS011;45330;51.634;5.562;2022-12-29T05:41:46;8.57;;;1.88;;
59512;SDS011;45330;51.634;5.562;2022-12-29T05:44:11;9.20;;;1.80;;
59512;SDS011;45330;51.634;5.562;2022-12-29T05:46:37;15.18;;;2.40;;
59512;SDS011;45330;51.634;5.562;2022-12-29T05:49:03;10.40;;;1.75;;
59512;SDS011;45330;51.634;5.562;2022-12-29T05:51:28;12.02;;;2.10;;
59512;SDS011;45330;51.634;5.562;2022-12-29T05:53:53;10.27;;;1.63;;
59512;SDS011;45330;51.634;5.562;2022-12-29T05:56:19;9.70;;;2.30;;
59512;SDS011;45330;51.634;5.562;2022-12-29T05:58:44;10.32;;;2.00;;
59512;SDS011;45330;51.634;5.562;2022-12-29T06:01:10;7.35;;;1.70;;
59512;SDS011;45330;51.634;5.562;2022-12-29T06:03:35;11.50;;;2.67;;
59512;SDS011;45330;51.634;5.562;2022-12-29T06:06:00;8.77;;;1.73;;
59512;SDS011;45330;51.634;5.562;2022-12-29T06:08:26;9.73;;;1.83;;
59512;SDS011;45330;51.634;5.562;2022-12-29T06:10:51;8.75;;;1.33;;
59512;SDS011;45330;51.634;5.562;2022-12-29T06:13:16;9.52;;;1.77;;
59512;SDS011;45330;51.634;5.562;2022-12-29T06:15:42;8.10;;;1.80;;
59512;SDS011;45330;51.634;5.562;2022-12-29T06:18:07;12.73;;;2.03;;
59512;SDS011;45330;51.634;5.562;2022-12-29T06:20:33;8.55;;;1.70;;
59512;SDS011;45330;51.634;5.562;2022-12-29T06:22:58;8.82;;;1.67;;
59512;SDS011;45330;51.634;5.562;2022-12-29T06:25:24;7.00;;;1.50;;
59512;SDS011;45330;51.634;5.562;2022-12-29T06:27:49;6.97;;;1.52;;
59512;SDS011;45330;51.634;5.562;2022-12-29T06:30:15;10.40;;;1.90;;
59512;SDS011;45330;51.634;5.562;2022-12-29T06:32:41;8.20;;;2.35;;
59512;SDS011;45330;51.634;5.562;2022-12-29T06:35:07;9.30;;;1.48;;
59512;SDS011;45330;51.634;5.562;2022-12-29T06:37:33;7.65;;;1.90;;
59512;SDS011;45330;51.634;5.562;2022-12-29T06:39:58;7.68;;;1.70;;
59512;SDS011;45330;51.634;5.562;2022-12-29T06:42:24;9.13;;;1.92;;
59512;SDS011;45330;51.634;5.562;2022-12-29T06:44:49;8.82;;;1.77;;
59512;SDS011;45330;51.634;5.562;2022-12-29T06:47:14;8.77;;;1.80;;
59512;SDS011;45330;51.634;5.562;2022-12-29T06:49:40;10.48;;;1.88;;
59512;SDS011;45330;51.634;5.562;2022-12-29T06:52:06;9.07;;;1.85;;
59512;SDS011;45330;51.634;5.562;2022-12-29T06:54:31;9.40;;;1.70;;
59512;SDS011;45330;51.634;5.562;2022-12-29T06:56:56;6.00;;;1.63;;
59512;SDS011;45330;51.634;5.562;2022-12-29T06:59:22;9.25;;;1.55;;
59512;SDS011;45330;51.634;5.562;2022-12-29T07:01:47;5.88;;;1.70;;
59512;SDS011;45330;51.634;5.562;2022-12-29T07:04:13;10.75;;;2.20;;
59512;SDS011;45330;51.634;5.562;2022-12-29T07:06:38;8.88;;;1.75;;
59512;SDS011;45330;51.634;5.562;2022-12-29T07:09:05;11.55;;;1.88;;
59512;SDS011;45330;51.634;5.562;2022-12-29T07:11:31;11.30;;;2.10;;
59512;SDS011;45330;51.634;5.562;2022-12-29T07:13:56;12.60;;;2.15;;
59512;SDS011;45330;51.634;5.562;2022-12-29T07:16:22;12.15;;;2.15;;
59512;SDS011;45330;51.634;5.562;2022-12-29T07:18:47;10.70;;;1.85;;
59512;SDS011;45330;51.634;5.562;2022-12-29T07:21:13;8.85;;;1.58;;
59512;SDS011;45330;51.634;5.562;2022-12-29T07:23:38;11.32;;;2.22;;
59512;SDS011;45330;51.634;5.562;2022-12-29T07:26:04;14.45;;;2.22;;
59512;SDS011;45330;51.634;5.562;2022-12-29T07:28:31;7.47;;;1.85;;
59512;SDS011;45330;51.634;5.562;2022-12-29T07:30:59;15.65;;;2.58;;
59512;SDS011;45330;51.634;5.562;2022-12-29T07:33:25;11.38;;;1.83;;
59512;SDS011;45330;51.634;5.562;2022-12-29T07:35:53;10.48;;;1.95;;
59512;SDS011;45330;51.634;5.562;2022-12-29T07:38:18;12.15;;;2.08;;
59512;SDS011;45330;51.634;5.562;2022-12-29T07:40:43;11.30;;;2.08;;
59512;SDS011;45330;51.634;5.562;2022-12-29T07:43:09;8.18;;;1.73;;
59512;SDS011;45330;51.634;5.562;2022-12-29T07:45:34;9.30;;;2.20;;
59512;SDS011;45330;51.634;5.562;2022-12-29T07:47:59;12.52;;;1.83;;
59512;SDS011;45330;51.634;5.562;2022-12-29T07:50:27;14.80;;;2.85;;
59512;SDS011;45330;51.634;5.562;2022-12-29T07:52:52;15.75;;;2.90;;
59512;SDS011;45330;51.634;5.562;2022-12-29T07:55:18;9.93;;;2.08;;
59512;SDS011;45330;51.634;5.562;2022-12-29T07:57:43;12.55;;;1.90;;
59512;SDS011;45330;51.634;5.562;2022-12-29T08:00:09;11.50;;;2.40;;
59512;SDS011;45330;51.634;5.562;2022-12-29T08:02:35;16.90;;;2.55;;
59512;SDS011;45330;51.634;5.562;2022-12-29T08:05:01;12.50;;;2.55;;
59512;SDS011;45330;51.634;5.562;2022-12-29T08:07:26;11.85;;;2.78;;
59512;SDS011;45330;51.634;5.562;2022-12-29T08:09:52;14.98;;;2.40;;
59512;SDS011;45330;51.634;5.562;2022-12-29T08:12:17;9.48;;;2.08;;
59512;SDS011;45330;51.634;5.562;2022-12-29T08:14:43;12.68;;;2.60;;
59512;SDS011;45330;51.634;5.562;2022-12-29T08:17:08;18.15;;;2.22;;
59512;SDS011;45330;51.634;5.562;2022-12-29T08:19:34;14.45;;;2.38;;
59512;SDS011;45330;51.634;5.562;2022-12-29T08:22:00;14.45;;;2.15;;
59512;SDS011;45330;51.634;5.562;2022-12-29T08:24:26;16.55;;;2.97;;
59512;SDS011;45330;51.634;5.562;2022-12-29T08:26:52;11.43;;;2.30;;
59512;SDS011;45330;51.634;5.562;2022-12-29T08:29:17;10.00;;;1.90;;
59512;SDS011;45330;51.634;5.562;2022-12-29T08:31:42;15.27;;;2.70;;
59512;SDS011;45330;51.634;5.562;2022-12-29T08:34:08;11.77;;;2.30;;
59512;SDS011;45330;51.634;5.562;2022-12-29T08:36:34;15.73;;;2.90;;
59512;SDS011;45330;51.634;5.562;2022-12-29T08:38:59;10.93;;;2.17;;
59512;SDS011;45330;51.634;5.562;2022-12-29T08:41:24;15.50;;;2.42;;
59512;SDS011;45330;51.634;5.562;2022-12-29T08:43:50;13.35;;;2.40;;
59512;SDS011;45330;51.634;5.562;2022-12-29T08:46:15;15.50;;;2.30;;
59512;SDS011;45330;51.634;5.562;2022-12-29T08:48:42;14.73;;;2.55;;
59512;SDS011;45330;51.634;5.562;2022-12-29T08:51:07;14.80;;;2.30;;
59512;SDS011;45330;51.634;5.562;2022-12-29T08:53:34;13.30;;;2.33;;
59512;SDS011;45330;51.634;5.562;2022-12-29T08:56:00;18.15;;;2.72;;
59512;SDS011;45330;51.634;5.562;2022-12-29T08:58:26;13.85;;;2.85;;
59512;SDS011;45330;51.634;5.562;2022-12-29T09:00:53;15.88;;;2.40;;
59512;SDS011;45330;51.634;5.562;2022-12-29T09:03:18;14.73;;;2.70;;
59512;SDS011;45330;51.634;5.562;2022-12-29T09:05:47;10.40;;;2.25;;
59512;SDS011;45330;51.634;5.562;2022-12-29T09:08:14;12.77;;;2.40;;
59512;SDS011;45330;51.634;5.562;2022-12-29T09:10:39;10.68;;;2.33;;
59512;SDS011;45330;51.634;5.562;2022-12-29T09:13:05;10.35;;;2.30;;
59512;SDS011;45330;51.634;5.562;2022-12-29T09:15:30;11.77;;;2.40;;
59512;SDS011;45330;51.634;5.562;2022-12-29T09:17:55;14.25;;;2.65;;
59512;SDS011;45330;51.634;5.562;2022-12-29T09:20:21;17.58;;;2.85;;
59512;SDS011;45330;51.634;5.562;2022-12-29T09:22:47;10.38;;;1.92;;
59512;SDS011;45330;51.634;5.562;2022-12-29T09:25:12;15.13;;;2.13;;
59512;SDS011;45330;51.634;5.562;2022-12-29T09:27:38;13.65;;;2.30;;
59512;SDS011;45330;51.634;5.562;2022-12-29T09:30:04;15.98;;;2.42;;
59512;SDS011;45330;51.634;5.562;2022-12-29T09:32:31;16.60;;;2.25;;
59512;SDS011;45330;51.634;5.562;2022-12-29T09:34:57;13.27;;;2.47;;
59512;SDS011;45330;51.634;5.562;2022-12-29T09:37:22;14.25;;;2.40;;
59512;SDS011;45330;51.634;5.562;2022-12-29T09:39:47;13.43;;;2.78;;
59512;SDS011;45330;51.634;5.562;2022-12-29T09:44:51;13.95;;;2.58;;
59512;SDS011;45330;51.634;5.562;2022-12-29T09:47:27;15.05;;;2.65;;
59512;SDS011;45330;51.634;5.562;2022-12-29T09:49:54;12.95;;;1.98;;
59512;SDS011;45330;51.634;5.562;2022-12-29T09:52:37;11.75;;;2.30;;
59512;SDS011;45330;51.634;5.562;2022-12-29T09:55:19;14.65;;;2.42;;
59512;SDS011;45330;51.634;5.562;2022-12-29T09:57:49;10.57;;;2.22;;
59512;SDS011;45330;51.634;5.562;2022-12-29T10:00:21;11.13;;;2.28;;
59512;SDS011;45330;51.634;5.562;2022-12-29T10:02:58;9.20;;;2.00;;
59512;SDS011;45330;51.634;5.562;2022-12-29T10:05:33;10.98;;;1.98;;
59512;SDS011;45330;51.634;5.562;2022-12-29T10:14:18;11.60;;;2.33;;
59512;SDS011;45330;51.634;5.562;2022-12-29T10:16:56;11.77;;;2.45;;
59512;SDS011;45330;51.634;5.562;2022-12-29T10:25:20;11.05;;;2.80;;
59512;SDS011;45330;51.634;5.562;2022-12-29T10:27:50;14.32;;;2.40;;
59512;SDS011;45330;51.634;5.562;2022-12-29T10:30:18;13.10;;;2.53;;
59512;SDS011;45330;51.634;5.562;2022-12-29T10:32:54;11.40;;;2.38;;
59512;SDS011;45330;51.634;5.562;2022-12-29T10:35:41;13.50;;;2.22;;
59512;SDS011;45330;51.634;5.562;2022-12-29T10:43:50;13.13;;;2.60;;
59512;SDS011;45330;51.634;5.562;2022-12-29T10:46:18;15.02;;;2.72;;
59512;SDS011;45330;51.634;5.562;2022-12-29T10:48:46;12.60;;;2.40;;
59512;SDS011;45330;51.634;5.562;2022-12-29T10:51:18;19.67;;;3.10;;
59512;SDS011;45330;51.634;5.562;2022-12-29T10:53:46;14.60;;;3.17;;
59512;SDS011;45330;51.634;5.562;2022-12-29T10:56:28;13.50;;;2.38;;
59512;SDS011;45330;51.634;5.562;2022-12-29T10:58:54;10.70;;;2.53;;
59512;SDS011;45330;51.634;5.562;2022-12-29T11:01:22;12.88;;;2.50;;
59512;SDS011;45330;51.634;5.562;2022-12-29T11:06:27;13.90;;;2.50;;
59512;SDS011;45330;51.634;5.562;2022-12-29T11:08:58;14.70;;;2.80;;
59512;SDS011;45330;51.634;5.562;2022-12-29T11:11:37;15.00;;;2.38;;
59512;SDS011;45330;51.634;5.562;2022-12-29T11:14:13;14.13;;;2.70;;
59512;SDS011;45330;51.634;5.562;2022-12-29T11:16:42;14.93;;;2.45;;
59512;SDS011;45330;51.634;5.562;2022-12-29T11:19:23;11.68;;;2.47;;
59512;SDS011;45330;51.634;5.562;2022-12-29T11:21:50;11.52;;;2.30;;
59512;SDS011;45330;51.634;5.562;2022-12-29T11:24:24;13.60;;;2.67;;
59512;SDS011;45330;51.634;5.562;2022-12-29T11:26:55;10.80;;;2.33;;
59512;SDS011;45330;51.634;5.562;2022-12-29T11:29:38;16.15;;;2.40;;
59512;SDS011;45330;51.634;5.562;2022-12-29T11:32:16;15.43;;;2.92;;
59512;SDS011;45330;51.634;5.562;2022-12-29T11:34:49;17.75;;;3.00;;
59512;SDS011;45330;51.634;5.562;2022-12-29T11:37:16;15.90;;;2.85;;
59512;SDS011;45330;51.634;5.562;2022-12-29T11:42:16;16.13;;;2.95;;
59512;SDS011;45330;51.634;5.562;2022-12-29T11:44:47;15.80;;;3.13;;
59512;SDS011;45330;51.634;5.562;2022-12-29T11:47:25;12.88;;;3.00;;
59512;SDS011;45330;51.634;5.562;2022-12-29T11:49:56;13.77;;;2.83;;
59512;SDS011;45330;51.634;5.562;2022-12-29T11:52:25;14.68;;;3.10;;
59512;SDS011;45330;51.634;5.562;2022-12-29T11:54:53;12.25;;;2.30;;
59512;SDS011;45330;51.634;5.562;2022-12-29T11:57:20;16.33;;;3.17;;
59512;SDS011;45330;51.634;5.562;2022-12-29T11:59:50;19.13;;;3.70;;
59512;SDS011;45330;51.634;5.562;2022-12-29T12:02:33;17.50;;;2.90;;
59512;SDS011;45330;51.634;5.562;2022-12-29T12:08:43;18.98;;;3.45;;
59512;SDS011;45330;51.634;5.562;2022-12-29T12:11:16;15.68;;;3.05;;
59512;SDS011;45330;51.634;5.562;2022-12-29T12:16:34;15.05;;;2.58;;
59512;SDS011;45330;51.634;5.562;2022-12-29T12:19:10;15.20;;;2.80;;
59512;SDS011;45330;51.634;5.562;2022-12-29T12:21:45;14.43;;;2.88;;
59512;SDS011;45330;51.634;5.562;2022-12-29T12:27:29;21.10;;;3.60;;
59512;SDS011;45330;51.634;5.562;2022-12-29T12:35:15;17.77;;;3.03;;
59512;SDS011;45330;51.634;5.562;2022-12-29T12:41:08;14.57;;;2.80;;
59512;SDS011;45330;51.634;5.562;2022-12-29T12:43:40;18.33;;;3.17;;
59512;SDS011;45330;51.634;5.562;2022-12-29T12:46:18;14.15;;;3.35;;
59512;SDS011;45330;51.634;5.562;2022-12-29T12:59:36;13.37;;;2.67;;
59512;SDS011;45330;51.634;5.562;2022-12-29T13:04:53;14.93;;;2.78;;
59512;SDS011;45330;51.634;5.562;2022-12-29T13:10:17;18.20;;;2.47;;
59512;SDS011;45330;51.634;5.562;2022-12-29T13:15:43;13.23;;;2.28;;
59512;SDS011;45330;51.634;5.562;2022-12-29T13:18:37;9.95;;;2.33;;
59512;SDS011;45330;51.634;5.562;2022-12-29T13:24:03;13.27;;;2.45;;
59512;SDS011;45330;51.634;5.562;2022-12-29T13:26:54;15.32;;;2.63;;
59512;SDS011;45330;51.634;5.562;2022-12-29T13:32:17;16.08;;;3.33;;
59512;SDS011;45330;51.634;5.562;2022-12-29T13:37:31;13.55;;;2.30;;
59512;SDS011;45330;51.634;5.562;2022-12-29T13:40:02;14.50;;;2.33;;
59512;SDS011;45330;51.634;5.562;2022-12-29T13:42:34;10.63;;;2.20;;
59512;SDS011;45330;51.634;5.562;2022-12-29T13:45:05;14.73;;;2.60;;
59512;SDS011;45330;51.634;5.562;2022-12-29T13:47:48;20.92;;;2.70;;
59512;SDS011;45330;51.634;5.562;2022-12-29T13:50:20;12.23;;;2.30;;
59512;SDS011;45330;51.634;5.562;2022-12-29T13:55:54;16.30;;;2.67;;
59512;SDS011;45330;51.634;5.562;2022-12-29T14:06:28;10.25;;;2.30;;
59512;SDS011;45330;51.634;5.562;2022-12-29T14:09:04;13.27;;;2.63;;
59512;SDS011;45330;51.634;5.562;2022-12-29T14:11:34;14.48;;;2.30;;
59512;SDS011;45330;51.634;5.562;2022-12-29T14:17:09;13.38;;;2.60;;
59512;SDS011;45330;51.634;5.562;2022-12-29T14:19:38;13.75;;;2.40;;
59512;SDS011;45330;51.634;5.562;2022-12-29T14:22:07;17.45;;;3.97;;
59512;SDS011;45330;51.634;5.562;2022-12-29T14:32:35;14.95;;;2.72;;
59512;SDS011;45330;51.634;5.562;2022-12-29T14:34:49;13.50;;;2.58;;
59512;SDS011;45330;51.634;5.562;2022-12-29T14:42:48;17.83;;;2.85;;
59512;SDS011;45330;51.634;5.562;2022-12-29T14:47:51;13.98;;;3.05;;
59512;SDS011;45330;51.634;5.562;2022-12-29T14:52:53;13.48;;;2.75;;
59512;SDS011;45330;51.634;5.562;2022-12-29T14:55:43;14.35;;;3.55;;
59512;SDS011;45330;51.634;5.562;2022-12-29T15:00:45;15.40;;;3.60;;
59512;SDS011;45330;51.634;5.562;2022-12-29T15:05:53;13.80;;;2.95;;
59512;SDS011;45330;51.634;5.562;2022-12-29T15:08:22;17.35;;;3.22;;
59512;SDS011;45330;51.634;5.562;2022-12-29T15:10:53;11.77;;;3.05;;
59512;SDS011;45330;51.634;5.562;2022-12-29T15:13:32;16.73;;;2.63;;
59512;SDS011;45330;51.634;5.562;2022-12-29T15:16:02;16.20;;;3.63;;
59512;SDS011;45330;51.634;5.562;2022-12-29T15:18:29;14.60;;;3.47;;
59512;SDS011;45330;51.634;5.562;2022-12-29T15:21:03;14.50;;;2.88;;
59512;SDS011;45330;51.634;5.562;2022-12-29T15:23:31;12.90;;;2.95;;
59512;SDS011;45330;51.634;5.562;2022-12-29T15:26:02;14.82;;;3.40;;
59512;SDS011;45330;51.634;5.562;2022-12-29T15:28:42;19.08;;;3.22;;
59512;SDS011;45330;51.634;5.562;2022-12-29T15:31:11;11.50;;;2.50;;
59512;SDS011;45330;51.634;5.562;2022-12-29T15:33:39;16.15;;;2.70;;
59512;SDS011;45330;51.634;5.562;2022-12-29T15:36:10;9.82;;;2.40;;
59512;SDS011;45330;51.634;5.562;2022-12-29T15:38:39;12.98;;;2.97;;
59512;SDS011;45330;51.634;5.562;2022-12-29T15:46:22;9.70;;;2.00;;
59512;SDS011;45330;51.634;5.562;2022-12-29T15:48:48;11.95;;;2.00;;
59512;SDS011;45330;51.634;5.562;2022-12-29T15:53:45;8.43;;;2.13;;
59512;SDS011;45330;51.634;5.562;2022-12-29T15:56:12;7.90;;;2.30;;
59512;SDS011;45330;51.634;5.562;2022-12-29T15:58:45;5.38;;;2.10;;
59512;SDS011;45330;51.634;5.562;2022-12-29T16:01:32;7.25;;;2.25;;
59512;SDS011;45330;51.634;5.562;2022-12-29T16:03:59;7.70;;;1.80;;
59512;SDS011;45330;51.634;5.562;2022-12-29T16:06:35;9.18;;;2.50;;
59512;SDS011;45330;51.634;5.562;2022-12-29T16:09:15;8.82;;;2.20;;
59512;SDS011;45330;51.634;5.562;2022-12-29T16:11:52;8.35;;;2.10;;
59512;SDS011;45330;51.634;5.562;2022-12-29T16:14:24;8.38;;;2.20;;
59512;SDS011;45330;51.634;5.562;2022-12-29T16:16:56;10.77;;;2.00;;
59512;SDS011;45330;51.634;5.562;2022-12-29T16:21:57;11.23;;;2.25;;
59512;SDS011;45330;51.634;5.562;2022-12-29T16:24:25;8.40;;;1.90;;
59512;SDS011;45330;51.634;5.562;2022-12-29T16:27:06;8.43;;;2.25;;
59512;SDS011;45330;51.634;5.562;2022-12-29T16:29:44;7.65;;;2.10;;
59512;SDS011;45330;51.634;5.562;2022-12-29T16:32:26;10.73;;;2.08;;
59512;SDS011;45330;51.634;5.562;2022-12-29T16:38:12;8.15;;;1.92;;
59512;SDS011;45330;51.634;5.562;2022-12-29T16:43:19;8.48;;;1.67;;
59512;SDS011;45330;51.634;5.562;2022-12-29T16:55:46;12.40;;;2.17;;
59512;SDS011;45330;51.634;5.562;2022-12-29T16:58:16;9.13;;;2.08;;
59512;SDS011;45330;51.634;5.562;2022-12-29T17:00:45;8.38;;;2.03;;
59512;SDS011;45330;51.634;5.562;2022-12-29T17:03:11;10.15;;;1.88;;
59512;SDS011;45330;51.634;5.562;2022-12-29T17:05:37;10.32;;;2.70;;
59512;SDS011;45330;51.634;5.562;2022-12-29T17:08:02;11.30;;;2.22;;
59512;SDS011;45330;51.634;5.562;2022-12-29T17:10:28;11.13;;;2.15;;
59512;SDS011;45330;51.634;5.562;2022-12-29T17:13:12;10.02;;;2.00;;
59512;SDS011;45330;51.634;5.562;2022-12-29T17:15:37;8.70;;;2.30;;
59512;SDS011;45330;51.634;5.562;2022-12-29T17:18:03;7.45;;;1.95;;
59512;SDS011;45330;51.634;5.562;2022-12-29T17:20:29;9.40;;;2.33;;
59512;SDS011;45330;51.634;5.562;2022-12-29T17:22:55;12.40;;;2.08;;
59512;SDS011;45330;51.634;5.562;2022-12-29T17:25:32;12.07;;;3.08;;
59512;SDS011;45330;51.634;5.562;2022-12-29T17:30:41;11.67;;;2.40;;
59512;SDS011;45330;51.634;5.562;2022-12-29T17:33:08;12.73;;;2.40;;
59512;SDS011;45330;51.634;5.562;2022-12-29T17:35:37;13.13;;;2.63;;
59512;SDS011;45330;51.634;5.562;2022-12-29T17:38:08;9.75;;;2.13;;
59512;SDS011;45330;51.634;5.562;2022-12-29T17:40:52;11.63;;;2.55;;
59512;SDS011;45330;51.634;5.562;2022-12-29T17:43:17;19.55;;;4.57;;
59512;SDS011;45330;51.634;5.562;2022-12-29T17:45:44;15.20;;;3.40;;
59512;SDS011;45330;51.634;5.562;2022-12-29T17:48:14;13.30;;;2.60;;
59512;SDS011;45330;51.634;5.562;2022-12-29T17:50:41;14.02;;;2.70;;
59512;SDS011;45330;51.634;5.562;2022-12-29T17:53:12;16.27;;;2.88;;
59512;SDS011;45330;51.634;5.562;2022-12-29T17:55:40;18.58;;;2.75;;
59512;SDS011;45330;51.634;5.562;2022-12-29T17:58:16;17.15;;;3.15;;
59512;SDS011;45330;51.634;5.562;2022-12-29T18:00:44;16.60;;;2.92;;